createdAt,value
2019-05-07T00:00:50.081Z,14.60
2019-05-07T00:03:22.032Z,14.70
2019-05-07T00:05:53.957Z,14.70
2019-05-07T00:08:23.748Z,14.60
2019-05-07T00:10:54.154Z,14.60
2019-05-07T00:13:25.353Z,14.60
2019-05-07T00:15:55.472Z,14.60
2019-05-07T00:18:25.604Z,14.60
2019-05-07T00:20:56.083Z,14.50
2019-05-07T00:23:26.433Z,14.50
2019-05-07T00:25:56.617Z,14.50
2019-05-07T00:28:26.809Z,14.50
2019-05-07T00:30:56.865Z,14.50
2019-05-07T00:33:26.923Z,14.40
2019-05-07T00:36:07.845Z,14.40
2019-05-07T00:38:39.528Z,14.40
2019-05-07T00:41:14.121Z,14.30
2019-05-07T00:43:45.950Z,14.30
2019-05-07T00:46:17.713Z,14.30
2019-05-07T00:48:47.708Z,14.20
2019-05-07T00:51:28.133Z,14.20
2019-05-07T00:53:58.549Z,14.20
2019-05-07T00:56:28.765Z,14.10
2019-05-07T00:58:59.289Z,14.10
2019-05-07T01:01:29.419Z,14.10
2019-05-07T01:03:59.550Z,14.00
2019-05-07T01:06:29.888Z,14.00
2019-05-07T01:09:00.009Z,14.00
2019-05-07T01:11:30.062Z,14.00
2019-05-07T01:14:00.112Z,13.90
2019-05-07T01:16:30.160Z,13.90
2019-05-07T01:19:01.894Z,13.80
2019-05-07T01:21:32.422Z,13.80
2019-05-07T01:24:03.408Z,13.80
2019-05-07T01:26:33.535Z,13.80
2019-05-07T01:29:03.674Z,13.80
2019-05-07T01:31:39.271Z,13.80
2019-05-07T01:34:22.942Z,13.80
2019-05-07T01:36:52.435Z,13.80
2019-05-07T01:39:23.146Z,13.80
2019-05-07T01:41:53.421Z,13.70
2019-05-07T01:44:23.792Z,13.80
2019-05-07T01:46:53.905Z,13.70
2019-05-07T01:49:24.197Z,13.70
2019-05-07T01:51:54.451Z,13.70
2019-05-07T01:54:24.453Z,13.70
2019-05-07T01:56:54.503Z,13.70
2019-05-07T01:59:24.523Z,13.80
2019-05-07T02:01:56.668Z,13.80
2019-05-07T02:04:40.206Z,13.80
2019-05-07T02:07:14.576Z,13.80
2019-05-07T02:09:49.300Z,13.80
2019-05-07T02:12:22.212Z,13.80
2019-05-07T02:14:53.025Z,13.80
2019-05-07T02:17:24.424Z,13.70
2019-05-07T02:19:54.483Z,13.70
2019-05-07T02:22:24.536Z,13.70
2019-05-07T02:24:54.595Z,13.70
2019-05-07T02:27:24.647Z,13.70
2019-05-07T02:29:54.700Z,13.70
2019-05-07T02:32:24.893Z,13.70
2019-05-07T02:34:54.956Z,13.60
2019-05-07T02:37:33.744Z,13.60
2019-05-07T02:42:44.318Z,13.60
2019-05-07T02:45:16.399Z,13.60
2019-05-07T02:47:46.530Z,13.50
2019-05-07T02:50:32.919Z,13.50
2019-05-07T02:53:22.882Z,13.50
2019-05-07T02:55:58.183Z,13.50
2019-05-07T02:58:28.229Z,13.50
2019-05-07T03:00:58.277Z,13.40
2019-05-07T03:03:28.431Z,13.40
2019-05-07T03:05:58.560Z,13.40
2019-05-07T03:08:28.679Z,13.40
2019-05-07T03:10:58.716Z,13.30
2019-05-07T03:13:28.845Z,13.30
2019-05-07T03:15:59.069Z,13.30
2019-05-07T03:18:29.299Z,13.30
2019-05-07T03:21:12.645Z,13.30
2019-05-07T03:23:46.084Z,13.20
2019-05-07T03:26:23.544Z,13.20
2019-05-07T03:28:55.316Z,13.20
2019-05-07T03:31:36.355Z,13.20
2019-05-07T03:34:07.645Z,13.20
2019-05-07T03:36:39.560Z,13.10
2019-05-07T03:39:09.653Z,13.10
2019-05-07T03:41:43.069Z,13.10
2019-05-07T03:44:33.853Z,13.10
2019-05-07T03:47:16.887Z,13.00
2019-05-07T03:49:47.438Z,13.00
2019-05-07T03:52:17.570Z,13.00
2019-05-07T03:54:47.698Z,13.00
2019-05-07T03:57:19.165Z,13.00
2019-05-07T03:59:49.222Z,13.00
2019-05-07T04:02:19.336Z,13.00
2019-05-07T04:04:49.320Z,13.00
2019-05-07T04:07:19.377Z,12.90
2019-05-07T04:09:49.421Z,12.90
2019-05-07T04:12:19.482Z,12.90
2019-05-07T04:14:49.593Z,12.90
2019-05-07T04:17:23.231Z,12.80
2019-05-07T04:19:53.225Z,12.90
2019-05-07T04:22:26.422Z,12.80
2019-05-07T04:24:59.521Z,12.80
2019-05-07T04:27:37.002Z,12.80
2019-05-07T04:30:08.302Z,12.80
2019-05-07T04:32:43.189Z,12.80
2019-05-07T04:35:13.220Z,12.80
2019-05-07T04:37:43.293Z,12.70
2019-05-07T04:40:13.598Z,12.80
2019-05-07T04:42:43.664Z,12.80
2019-05-07T04:45:14.290Z,12.80
2019-05-07T04:47:47.683Z,12.80
2019-05-07T04:50:36.781Z,12.80
2019-05-07T04:52:49.413Z,12.90
2019-05-07T04:55:22.714Z,12.90
2019-05-07T04:57:53.357Z,12.90
2019-05-07T05:00:23.938Z,12.90
2019-05-07T05:02:55.769Z,13.00
2019-05-07T05:05:26.260Z,13.10
2019-05-07T05:07:56.316Z,13.20
2019-05-07T05:10:26.502Z,13.30
2019-05-07T05:12:56.572Z,13.30
2019-05-07T05:15:27.685Z,13.30
2019-05-07T05:17:57.850Z,13.30
2019-05-07T05:20:42.236Z,13.20
2019-05-07T05:23:13.865Z,13.30
2019-05-07T05:25:45.564Z,13.40
2019-05-07T05:28:15.959Z,13.50
2019-05-07T05:30:50.293Z,13.70
2019-05-07T05:33:20.424Z,13.80
2019-05-07T05:35:52.410Z,14.00
2019-05-07T05:38:22.544Z,14.20
2019-05-07T05:40:52.569Z,14.40
2019-05-07T05:43:27.217Z,14.50
2019-05-07T05:45:58.852Z,14.60
2019-05-07T05:48:28.828Z,14.80
2019-05-07T05:51:03.394Z,15.00
2019-05-07T05:53:38.029Z,15.20
2019-05-07T05:56:12.743Z,15.30
2019-05-07T05:58:52.550Z,15.50
2019-05-07T06:01:42.504Z,15.60
2019-05-07T06:04:13.368Z,15.80
2019-05-07T06:07:11.323Z,15.90
2019-05-07T06:09:52.760Z,16.10
2019-05-07T06:12:42.798Z,16.30
2019-05-07T06:15:14.322Z,16.60
2019-05-07T06:17:48.951Z,16.80
2019-05-07T06:20:37.197Z,17.00
2019-05-07T06:23:18.089Z,17.20
2019-05-07T06:25:49.272Z,17.50
2019-05-07T06:28:22.164Z,17.70
2019-05-07T06:30:52.776Z,18.00
2019-05-07T06:33:24.430Z,18.10
2019-05-07T06:35:54.549Z,18.50
2019-05-07T06:38:26.164Z,18.80
2019-05-07T06:40:57.874Z,18.90
2019-05-07T06:43:29.567Z,19.00
2019-05-07T06:46:04.256Z,19.20
2019-05-07T06:48:42.038Z,19.30
2019-05-07T06:51:05.998Z,19.30
2019-05-07T06:53:36.188Z,19.40
2019-05-07T06:56:06.316Z,19.50
2019-05-07T06:58:47.329Z,19.80
2019-05-07T07:01:35.970Z,19.90
2019-05-07T07:04:13.896Z,20.10
2019-05-07T07:06:48.277Z,20.20
2019-05-07T07:09:29.285Z,20.50
2019-05-07T07:12:13.161Z,20.50
2019-05-07T07:14:42.519Z,20.50
2019-05-07T07:17:13.022Z,20.30
2019-05-07T07:19:43.135Z,20.30
2019-05-07T07:22:13.260Z,20.30
2019-05-07T07:24:43.303Z,20.20
2019-05-07T07:27:13.448Z,20.20
2019-05-07T07:29:48.810Z,20.20
2019-05-07T07:32:23.402Z,20.20
2019-05-07T07:34:54.763Z,20.20
2019-05-07T07:37:26.359Z,20.20
2019-05-07T07:40:16.083Z,20.10
2019-05-07T07:42:46.268Z,20.10
2019-05-07T07:45:19.796Z,20.10
2019-05-07T07:47:49.072Z,20.20
2019-05-07T07:50:19.194Z,20.20
2019-05-07T07:52:49.307Z,20.10
2019-05-07T07:55:22.267Z,20.10
2019-05-07T07:58:12.522Z,20.00
2019-05-07T08:00:53.341Z,19.80
2019-05-07T08:03:23.402Z,19.80
2019-05-07T08:05:53.393Z,19.90
2019-05-07T08:08:23.793Z,19.90
2019-05-07T08:10:53.985Z,19.90
2019-05-07T08:13:24.045Z,19.50
2019-05-07T08:15:54.173Z,19.40
2019-05-07T08:18:24.389Z,19.50
2019-05-07T08:20:54.512Z,19.60
2019-05-07T08:23:24.624Z,19.50
2019-05-07T08:25:54.717Z,19.80
2019-05-07T08:28:25.137Z,19.90
2019-05-07T08:31:13.468Z,19.90
2019-05-07T08:33:48.380Z,20.00
2019-05-07T08:36:19.028Z,20.00
2019-05-07T08:38:52.428Z,19.90
2019-05-07T08:41:22.836Z,19.90
2019-05-07T08:44:08.333Z,20.10
2019-05-07T08:46:44.055Z,20.20
2019-05-07T08:49:15.741Z,20.30
2019-05-07T08:51:47.440Z,20.30
2019-05-07T08:54:17.696Z,20.30
2019-05-07T08:56:47.784Z,20.30
2019-05-07T08:59:17.975Z,20.30
2019-05-07T09:01:47.971Z,20.40
2019-05-07T09:04:17.948Z,20.50
2019-05-07T09:06:48.082Z,20.50
2019-05-07T09:09:18.204Z,20.50
2019-05-07T09:11:48.338Z,20.50
2019-05-07T09:14:18.461Z,20.60
2019-05-07T09:16:48.579Z,20.70
2019-05-07T09:19:18.719Z,20.70
2019-05-07T09:21:49.238Z,20.40
2019-05-07T09:24:19.301Z,20.50
2019-05-07T09:26:53.749Z,20.40
2019-05-07T09:29:25.808Z,20.30
2019-05-07T09:32:00.250Z,20.40
2019-05-07T09:34:38.062Z,20.50
2019-05-07T09:37:18.513Z,20.60
2019-05-07T09:39:48.570Z,20.70
2019-05-07T09:42:18.690Z,20.60
2019-05-07T09:44:48.741Z,20.40
2019-05-07T09:47:18.861Z,20.40
2019-05-07T09:50:03.527Z,20.40
2019-05-07T09:52:22.879Z,20.50
2019-05-07T09:54:52.988Z,20.60
2019-05-07T09:57:30.871Z,20.60
2019-05-07T09:59:54.790Z,20.60
2019-05-07T10:02:25.077Z,20.60
2019-05-07T10:04:55.201Z,20.60
2019-05-07T10:07:25.254Z,20.60
2019-05-07T10:09:55.328Z,20.60
2019-05-07T10:12:39.123Z,20.70
2019-05-07T10:15:09.055Z,20.80
2019-05-07T10:17:57.005Z,20.80
2019-05-07T10:20:27.567Z,20.90
2019-05-07T10:22:57.693Z,20.90
2019-05-07T10:25:29.394Z,20.70
2019-05-07T10:28:01.954Z,20.70
2019-05-07T10:30:32.613Z,20.80
2019-05-07T10:33:02.808Z,20.60
2019-05-07T10:35:33.713Z,20.50
2019-05-07T10:38:04.081Z,20.60
2019-05-07T10:40:34.525Z,20.50
2019-05-07T10:43:04.964Z,20.60
2019-05-07T10:45:52.124Z,20.50
2019-05-07T10:48:40.689Z,20.30
2019-05-07T10:51:10.856Z,20.10
2019-05-07T10:53:42.445Z,20.00
2019-05-07T10:56:12.740Z,19.90
2019-05-07T10:58:42.796Z,20.00
2019-05-07T11:01:14.862Z,20.00
2019-05-07T11:03:45.246Z,20.00
2019-05-07T11:06:15.430Z,20.00
2019-05-07T11:08:45.489Z,19.90
2019-05-07T11:11:15.604Z,19.80
2019-05-07T11:13:45.721Z,19.70
2019-05-07T11:16:17.408Z,19.80
2019-05-07T11:18:49.172Z,19.70
2019-05-07T11:21:22.209Z,19.70
2019-05-07T11:23:52.271Z,19.80
2019-05-07T11:26:22.386Z,19.80
2019-05-07T11:28:52.449Z,19.90
2019-05-07T11:31:22.507Z,20.00
2019-05-07T11:33:52.625Z,20.10
2019-05-07T11:36:22.682Z,20.10
2019-05-07T11:38:52.782Z,20.20
2019-05-07T11:41:24.564Z,20.30
2019-05-07T11:44:01.781Z,20.20
2019-05-07T11:46:52.610Z,20.10
2019-05-07T11:49:24.512Z,20.10
2019-05-07T11:51:58.982Z,20.00
2019-05-07T11:54:29.100Z,20.00
2019-05-07T11:56:59.158Z,20.00
2019-05-07T11:59:29.211Z,20.10
2019-05-07T12:02:00.982Z,20.10
2019-05-07T12:04:32.153Z,20.20
2019-05-07T12:07:02.635Z,20.30
2019-05-07T12:09:33.293Z,20.20
2019-05-07T12:12:03.681Z,20.20
2019-05-07T12:14:35.001Z,20.10
2019-05-07T12:17:06.781Z,20.00
2019-05-07T12:19:36.992Z,20.10
2019-05-07T12:22:07.650Z,20.10
2019-05-07T12:24:38.114Z,20.20
2019-05-07T12:27:08.304Z,20.20
2019-05-07T12:29:38.354Z,20.20
2019-05-07T12:32:29.565Z,20.30
2019-05-07T12:35:02.802Z,20.30
2019-05-07T12:37:32.927Z,20.40
2019-05-07T12:40:03.169Z,20.40
2019-05-07T12:42:33.267Z,20.40
2019-05-07T12:45:04.199Z,20.50
2019-05-07T12:47:34.672Z,20.60
2019-05-07T12:50:05.377Z,20.60
2019-05-07T12:52:49.317Z,20.60
2019-05-07T12:55:26.912Z,20.60
2019-05-07T12:57:57.024Z,20.60
2019-05-07T13:00:46.133Z,20.70
2019-05-07T13:03:21.813Z,20.60
2019-05-07T13:05:53.175Z,20.50
2019-05-07T13:08:23.569Z,20.40
2019-05-07T13:10:54.661Z,20.30
2019-05-07T13:13:24.726Z,20.40
2019-05-07T13:15:54.870Z,20.40
2019-05-07T13:18:24.988Z,20.30
2019-05-07T13:20:55.072Z,20.30
2019-05-07T13:23:25.281Z,20.40
2019-05-07T13:25:55.346Z,20.40
2019-05-07T13:28:25.425Z,20.40
2019-05-07T13:30:55.482Z,20.40
2019-05-07T13:33:26.912Z,20.30
2019-05-07T13:35:57.047Z,20.30
2019-05-07T13:38:29.405Z,20.20
2019-05-07T13:41:17.141Z,20.30
2019-05-07T13:43:58.914Z,20.30
2019-05-07T13:46:31.017Z,20.40
2019-05-07T13:49:02.094Z,20.40
2019-05-07T13:51:33.842Z,20.40
2019-05-07T13:54:04.294Z,20.40
2019-05-07T13:56:34.428Z,20.50
2019-05-07T13:59:05.031Z,20.40
2019-05-07T14:01:36.929Z,20.40
2019-05-07T14:04:07.357Z,20.30
2019-05-07T14:06:42.622Z,20.10
2019-05-07T14:09:15.252Z,20.20
2019-05-07T14:11:45.368Z,20.20
2019-05-07T14:14:18.196Z,20.20
2019-05-07T14:16:48.318Z,20.20
2019-05-07T14:19:18.453Z,20.30
2019-05-07T14:21:48.576Z,20.30
2019-05-07T14:24:18.625Z,20.30
2019-05-07T14:26:48.757Z,20.30
2019-05-07T14:29:18.742Z,20.30
2019-05-07T14:31:51.741Z,20.30
2019-05-07T14:34:24.048Z,20.40
2019-05-07T14:36:55.798Z,20.40
2019-05-07T14:39:25.840Z,20.50
2019-05-07T14:41:57.985Z,20.50
2019-05-07T14:44:46.165Z,20.60
2019-05-07T14:47:17.542Z,20.60
2019-05-07T14:49:48.366Z,20.60
2019-05-07T14:52:29.182Z,20.60
2019-05-07T14:54:50.233Z,20.60
2019-05-07T14:57:22.095Z,20.50
2019-05-07T14:59:52.493Z,20.50
2019-05-07T15:02:23.640Z,20.40
2019-05-07T15:04:53.940Z,20.40
2019-05-07T15:07:24.005Z,20.50
2019-05-07T15:09:54.133Z,20.40
2019-05-07T15:12:24.282Z,20.30
2019-05-07T15:14:54.745Z,20.20
2019-05-07T15:17:29.905Z,20.30
2019-05-07T15:20:00.033Z,20.30
2019-05-07T15:22:49.117Z,20.40
2019-05-07T15:25:12.167Z,20.40
2019-05-07T15:27:43.438Z,20.50
2019-05-07T15:30:14.131Z,20.60
2019-05-07T15:32:44.618Z,20.60
2019-05-07T15:35:14.737Z,20.60
2019-05-07T15:37:44.845Z,20.60
2019-05-07T15:40:14.974Z,20.70
2019-05-07T15:42:45.032Z,20.70
2019-05-07T15:45:15.332Z,20.70
2019-05-07T15:47:49.568Z,20.70
2019-05-07T15:50:19.547Z,20.70
2019-05-07T15:52:58.798Z,20.70
2019-05-07T15:55:29.076Z,20.70
2019-05-07T15:57:59.764Z,20.70
2019-05-07T16:00:33.423Z,20.70
2019-05-07T16:03:07.600Z,20.70
2019-05-07T16:05:37.665Z,20.70
2019-05-07T16:08:09.741Z,20.70
2019-05-07T16:10:39.810Z,20.80
2019-05-07T16:13:11.856Z,20.80
2019-05-07T16:15:43.266Z,20.80
2019-05-07T16:18:15.027Z,20.80
2019-05-07T16:20:45.097Z,20.70
2019-05-07T16:23:18.006Z,20.70
2019-05-07T16:25:46.764Z,20.70
2019-05-07T16:28:16.832Z,20.70
2019-05-07T16:30:46.886Z,20.70
2019-05-07T16:33:16.951Z,20.70
2019-05-07T16:35:47.518Z,20.70
2019-05-07T16:38:18.188Z,20.70
2019-05-07T16:40:48.405Z,20.70
2019-05-07T16:43:18.544Z,20.60
2019-05-07T16:45:48.665Z,20.60
2019-05-07T16:48:18.649Z,20.60
2019-05-07T16:50:48.772Z,20.60
2019-05-07T16:53:27.441Z,20.50
2019-05-07T16:55:52.237Z,20.50
2019-05-07T16:58:24.192Z,20.50
2019-05-07T17:01:09.309Z,20.50
2019-05-07T17:03:55.365Z,20.50
2019-05-07T17:06:25.529Z,20.50
2019-05-07T17:09:02.428Z,20.40
2019-05-07T17:11:33.527Z,20.40
2019-05-07T17:14:03.645Z,20.40
2019-05-07T17:16:34.073Z,20.40
2019-05-07T17:19:04.552Z,20.40
2019-05-07T17:21:37.801Z,20.30
2019-05-07T17:24:09.000Z,20.30
2019-05-07T17:26:39.131Z,20.30
2019-05-07T17:29:09.273Z,20.30
2019-05-07T17:31:39.805Z,20.30
2019-05-07T17:34:11.830Z,20.30
2019-05-07T17:36:42.373Z,20.30
2019-05-07T17:39:12.527Z,20.30
2019-05-07T17:41:43.089Z,20.30
2019-05-07T17:44:14.360Z,20.30
2019-05-07T17:46:46.134Z,20.30
2019-05-07T17:49:16.408Z,20.20
2019-05-07T17:51:46.539Z,20.20
2019-05-07T17:54:16.684Z,20.20
2019-05-07T17:56:46.806Z,20.10
2019-05-07T17:59:17.264Z,20.00
2019-05-07T18:01:50.201Z,20.00
2019-05-07T18:04:21.805Z,19.90
2019-05-07T18:06:52.346Z,19.90
2019-05-07T18:09:23.530Z,19.80
2019-05-07T18:11:53.720Z,19.60
2019-05-07T18:14:24.115Z,19.50
2019-05-07T18:16:58.665Z,19.40
2019-05-07T18:19:30.391Z,19.30
2019-05-07T18:22:02.504Z,19.20
2019-05-07T18:24:32.685Z,19.10
2019-05-07T18:27:04.458Z,19.00
2019-05-07T18:29:34.583Z,18.90
2019-05-07T18:32:06.283Z,18.90
2019-05-07T18:34:36.754Z,18.90
2019-05-07T18:37:07.975Z,18.90
2019-05-07T18:39:38.106Z,18.80
2019-05-07T18:42:08.223Z,18.80
2019-05-07T18:44:41.713Z,18.70
2019-05-07T18:47:12.943Z,18.70
2019-05-07T18:49:44.852Z,18.60
2019-05-07T18:52:15.275Z,18.50
2019-05-07T18:54:47.867Z,18.50
2019-05-07T18:57:17.085Z,18.40
2019-05-07T18:59:49.322Z,18.30
2019-05-07T19:02:19.512Z,18.20
2019-05-07T19:04:51.807Z,18.20
2019-05-07T19:07:23.071Z,18.20
2019-05-07T19:09:53.241Z,18.20
2019-05-07T19:12:24.978Z,18.20
2019-05-07T19:14:55.070Z,18.10
2019-05-07T19:17:25.715Z,18.20
2019-05-07T19:19:55.944Z,18.20
2019-05-07T19:22:26.064Z,18.20
2019-05-07T19:24:56.112Z,18.10
2019-05-07T19:27:26.230Z,18.10
2019-05-07T19:29:56.431Z,18.00
2019-05-07T19:32:26.490Z,18.00
2019-05-07T19:34:56.613Z,18.00
2019-05-07T19:37:26.958Z,18.00
2019-05-07T19:39:57.072Z,17.90
2019-05-07T19:42:27.138Z,17.90
2019-05-07T19:44:58.356Z,17.80
2019-05-07T19:47:28.482Z,17.80
2019-05-07T19:49:58.678Z,17.90
2019-05-07T19:52:28.861Z,17.90
2019-05-07T19:55:02.453Z,17.90
2019-05-07T19:57:33.289Z,17.80
2019-05-07T20:00:05.224Z,17.80
2019-05-07T20:02:40.510Z,17.70
2019-05-07T20:05:12.119Z,17.80
2019-05-07T20:07:43.494Z,17.70
2019-05-07T20:10:16.337Z,17.50
2019-05-07T20:12:46.537Z,17.60
2019-05-07T20:15:16.780Z,17.60
2019-05-07T20:17:46.904Z,17.50
2019-05-07T20:20:17.548Z,17.50
2019-05-07T20:22:47.722Z,17.60
2019-05-07T20:25:19.256Z,17.50
2019-05-07T20:27:49.600Z,17.50
2019-05-07T20:30:19.727Z,17.50
2019-05-07T20:32:49.852Z,17.50
2019-05-07T20:35:19.969Z,17.40
2019-05-07T20:37:52.021Z,17.30
2019-05-07T20:40:22.670Z,17.30
2019-05-07T20:42:52.885Z,17.20
2019-05-07T20:45:23.892Z,17.20
2019-05-07T20:47:54.065Z,17.10
2019-05-07T20:50:24.182Z,17.10
2019-05-07T20:52:54.373Z,17.10
2019-05-07T20:55:30.609Z,17.10
2019-05-07T20:57:57.761Z,17.10
2019-05-07T21:00:28.948Z,17.00
2019-05-07T21:03:16.885Z,17.00
2019-05-07T21:05:48.200Z,17.00
2019-05-07T21:08:18.337Z,17.10
2019-05-07T21:10:48.772Z,17.20
2019-05-07T21:13:30.085Z,17.30
2019-05-07T21:15:52.629Z,17.30
2019-05-07T21:18:23.253Z,17.40
2019-05-07T21:20:53.850Z,17.40
2019-05-07T21:23:24.001Z,17.50
2019-05-07T21:25:54.157Z,17.50
2019-05-07T21:28:24.184Z,17.50
2019-05-07T21:30:54.595Z,17.50
2019-05-07T21:33:24.880Z,17.50
2019-05-07T21:35:54.862Z,17.60
2019-05-07T21:38:24.909Z,17.60
2019-05-07T21:40:55.348Z,17.60
2019-05-07T21:43:25.397Z,17.60
2019-05-07T21:45:55.382Z,17.60
2019-05-07T21:48:25.507Z,17.60
2019-05-07T21:50:55.932Z,17.60
2019-05-07T21:53:27.620Z,17.60
2019-05-07T21:56:05.133Z,17.60
2019-05-07T21:58:47.296Z,17.60
2019-05-07T22:01:22.206Z,17.60
2019-05-07T22:03:54.264Z,17.60
2019-05-07T22:06:24.532Z,17.60
2019-05-07T22:08:54.936Z,17.50
2019-05-07T22:11:25.195Z,17.60
2019-05-07T22:13:55.323Z,17.50
2019-05-07T22:16:25.387Z,17.50
2019-05-07T22:18:55.497Z,17.50
2019-05-07T22:21:25.924Z,17.40
2019-05-07T22:23:55.968Z,17.40
2019-05-07T22:26:26.679Z,17.40
2019-05-07T22:28:56.967Z,17.40
2019-05-07T22:31:31.332Z,17.40
2019-05-07T22:34:19.152Z,17.30
2019-05-07T22:36:49.453Z,17.30
2019-05-07T22:39:23.844Z,17.20
2019-05-07T22:41:55.492Z,17.20
2019-05-07T22:44:26.524Z,17.20
2019-05-07T22:46:58.349Z,17.10
2019-05-07T22:49:28.426Z,17.10
2019-05-07T22:51:58.481Z,17.00
2019-05-07T22:54:28.600Z,17.00
2019-05-07T22:57:06.209Z,17.00
2019-05-07T22:59:36.213Z,17.00
2019-05-07T23:02:06.848Z,17.00
2019-05-07T23:04:36.982Z,16.90
2019-05-07T23:07:07.566Z,17.00
2019-05-07T23:09:37.914Z,16.90
2019-05-07T23:12:07.977Z,16.90
2019-05-07T23:14:37.965Z,16.90
2019-05-07T23:17:08.012Z,16.90
2019-05-07T23:19:37.997Z,16.80
2019-05-07T23:22:07.978Z,16.80
2019-05-07T23:24:38.125Z,16.80
2019-05-07T23:27:08.153Z,16.80
2019-05-07T23:29:38.281Z,16.80
2019-05-07T23:32:08.388Z,16.70
2019-05-07T23:34:38.508Z,16.70
2019-05-07T23:37:08.566Z,16.70
2019-05-07T23:39:42.956Z,16.70
2019-05-07T23:42:14.644Z,16.70
2019-05-07T23:44:44.772Z,16.70
2019-05-07T23:47:14.893Z,16.70
2019-05-07T23:49:44.952Z,16.60
2019-05-07T23:52:15.030Z,16.70
2019-05-07T23:54:45.080Z,16.70
2019-05-07T23:57:15.524Z,16.60
2019-05-07T23:59:45.760Z,16.60
